Time;durP1;ratioP1;P1;durP2;ratioP2;P2;SDS_P1;SDS_P2;PMS_P1;PMS_P2;Temp;Humidity;BMP_temperature;BMP_pressure;BME280_temperature;BME280_humidity;BME280_pressure;Samples;Min_cycle;Max_cycle;Signal;HPM_P1;HPM_P2
2022/07/24 00:00:15;;;;;;;10.07;7.57;;;20.10;99.90;;;;;;5002416;28;20029;-40
2022/07/24 00:02:42;;;;;;;8.73;7.25;;;20.10;99.90;;;;;;5001469;28;20030;-40
2022/07/24 00:05:08;;;;;;;10.70;7.82;;;20.20;99.90;;;;;;5000825;28;20033;-39
2022/07/24 00:07:37;;;;;;;10.65;8.23;;;20.20;99.90;;;;;;5001840;28;20048;-40
2022/07/24 00:10:04;;;;;;;10.80;8.45;;;20.20;99.90;;;;;;5001934;28;20380;-38
2022/07/24 00:12:30;;;;;;;10.55;8.70;;;20.10;99.90;;;;;;5002909;28;20160;-38
2022/07/24 00:14:56;;;;;;;10.80;8.50;;;20.10;99.90;;;;;;5002142;28;20037;-40
2022/07/24 00:17:21;;;;;;;11.18;7.53;;;20.10;99.90;;;;;;5003659;28;20036;-40
2022/07/24 00:19:47;;;;;;;10.70;8.90;;;19.90;99.90;;;;;;5000957;28;20034;-39
2022/07/24 00:22:13;;;;;;;10.25;7.75;;;19.70;99.90;;;;;;5000656;28;20737;-37
2022/07/24 00:24:38;;;;;;;9.60;8.13;;;19.40;99.90;;;;;;5000193;28;20046;-37
2022/07/24 00:27:04;;;;;;;10.77;7.97;;;19.30;99.90;;;;;;5002964;28;20033;-38
2022/07/24 00:29:29;;;;;;;8.68;7.43;;;19.30;99.90;;;;;;5001056;28;21047;-39
2022/07/24 00:31:55;;;;;;;9.50;7.05;;;19.40;99.90;;;;;;5000375;28;20199;-40
2022/07/24 00:34:21;;;;;;;11.95;8.80;;;19.50;99.90;;;;;;5004285;28;20116;-38
2022/07/24 00:36:46;;;;;;;10.82;8.70;;;19.60;99.90;;;;;;5007753;28;20022;-39
2022/07/24 00:39:12;;;;;;;10.68;8.52;;;19.60;99.90;;;;;;5000348;28;20033;-39
2022/07/24 00:41:38;;;;;;;11.05;8.25;;;19.50;99.90;;;;;;5001949;28;20041;-38
2022/07/24 00:44:11;;;;;;;9.18;7.63;;;19.60;99.90;;;;;;4999939;28;20026;-38
2022/07/24 00:46:38;;;;;;;9.77;7.10;;;19.70;99.90;;;;;;5001927;28;20113;-40
2022/07/24 00:49:06;;;;;;;8.82;6.40;;;19.70;99.90;;;;;;5001217;28;20464;-38
2022/07/24 00:51:32;;;;;;;9.10;7.88;;;19.60;99.90;;;;;;5001016;28;20030;-39
2022/07/24 00:53:58;;;;;;;10.32;7.85;;;19.60;99.90;;;;;;5001083;28;20092;-40
2022/07/24 00:56:24;;;;;;;9.63;8.27;;;19.40;99.90;;;;;;4999978;28;20026;-39
2022/07/24 00:58:50;;;;;;;10.70;8.63;;;19.30;99.90;;;;;;4999732;28;20659;-40
2022/07/24 01:01:18;;;;;;;10.88;8.75;;;19.20;99.90;;;;;;5000991;28;20034;-33
2022/07/24 01:03:44;;;;;;;9.35;8.15;;;18.90;99.90;;;;;;5000167;28;20827;-33
2022/07/24 01:06:09;;;;;;;11.98;7.70;;;18.90;99.90;;;;;;5000528;28;20030;-33
2022/07/24 01:08:36;;;;;;;9.70;7.88;;;18.70;99.90;;;;;;4999786;28;20038;-34
2022/07/24 01:11:03;;;;;;;12.90;8.80;;;18.40;99.90;;;;;;4999802;28;20062;-32
2022/07/24 01:13:30;;;;;;;10.10;8.25;;;18.00;99.90;;;;;;5001373;28;20056;-33
2022/07/24 01:15:57;;;;;;;10.13;7.97;;;17.80;99.90;;;;;;5000231;28;21137;-33
2022/07/24 01:18:22;;;;;;;10.48;8.57;;;17.80;99.90;;;;;;5000800;28;20364;-33
2022/07/24 01:20:50;;;;;;;10.18;7.60;;;17.70;99.90;;;;;;5000496;28;20052;-33
2022/07/24 01:23:16;;;;;;;11.13;8.63;;;17.80;99.90;;;;;;5000809;28;20072;-32
2022/07/24 01:25:41;;;;;;;9.90;8.27;;;17.90;99.90;;;;;;5001544;28;20109;-33
2022/07/24 01:28:07;;;;;;;11.73;9.65;;;17.90;99.90;;;;;;5002400;28;20144;-33
2022/07/24 01:30:33;;;;;;;9.55;7.93;;;17.90;99.90;;;;;;5000244;28;20041;-34
2022/07/24 01:32:59;;;;;;;9.38;7.90;;;18.00;99.90;;;;;;5000041;28;20467;-36
2022/07/24 01:35:25;;;;;;;13.38;9.90;;;18.20;99.90;;;;;;5000650;28;20034;-33
2022/07/24 01:37:52;;;;;;;11.23;8.57;;;18.30;99.90;;;;;;5001142;28;20518;-33
2022/07/24 01:40:19;;;;;;;12.00;9.40;;;18.30;99.90;;;;;;5002251;28;20034;-32
2022/07/24 01:42:44;;;;;;;10.35;8.32;;;18.00;99.90;;;;;;5001389;28;20025;-33
2022/07/24 01:45:10;;;;;;;12.23;9.07;;;18.20;99.90;;;;;;5000526;28;20076;-33
2022/07/24 01:47:36;;;;;;;9.45;7.90;;;18.30;99.90;;;;;;5000969;28;20026;-33
2022/07/24 01:50:02;;;;;;;11.20;8.27;;;18.50;99.90;;;;;;4999392;28;20479;-34
2022/07/24 01:52:28;;;;;;;11.18;9.18;;;18.60;99.90;;;;;;4999893;28;20149;-33
2022/07/24 01:54:54;;;;;;;10.68;9.07;;;18.60;99.90;;;;;;4999793;28;21088;-33
2022/07/24 01:57:19;;;;;;;14.48;8.63;;;18.60;99.90;;;;;;5001351;28;20030;-32
2022/07/24 01:59:45;;;;;;;10.18;8.18;;;18.60;99.90;;;;;;4999181;28;20038;-32
2022/07/24 02:02:11;;;;;;;11.75;8.68;;;18.70;99.90;;;;;;5000919;28;20042;-34
2022/07/24 02:04:37;;;;;;;12.32;8.73;;;18.80;99.90;;;;;;5000509;28;20029;-33
2022/07/24 02:07:02;;;;;;;11.70;9.25;;;18.80;99.90;;;;;;5000329;28;20030;-33
2022/07/24 02:09:28;;;;;;;12.52;9.52;;;18.80;99.90;;;;;;4999257;28;20045;-34
2022/07/24 02:11:54;;;;;;;12.45;9.70;;;18.80;99.90;;;;;;5001122;28;20048;-33
2022/07/24 02:14:19;;;;;;;15.57;10.05;;;18.80;99.90;;;;;;4999354;28;20037;-33
2022/07/24 02:16:45;;;;;;;11.77;9.07;;;18.80;99.90;;;;;;4998324;28;20392;-34
2022/07/24 02:19:11;;;;;;;11.70;9.00;;;18.70;99.90;;;;;;5000414;28;20026;-33
2022/07/24 02:21:37;;;;;;;11.23;8.63;;;18.60;99.90;;;;;;5001155;28;20364;-33
2022/07/24 02:24:03;;;;;;;10.18;8.18;;;18.60;99.90;;;;;;4998072;28;20030;-33
2022/07/24 02:26:29;;;;;;;10.70;8.57;;;18.60;99.90;;;;;;4998765;28;20058;-32
2022/07/24 02:28:55;;;;;;;12.60;9.25;;;18.60;99.90;;;;;;4998456;28;20024;-33
2022/07/24 02:31:21;;;;;;;12.38;9.05;;;18.60;99.90;;;;;;5000185;28;20955;-33
2022/07/24 02:33:47;;;;;;;9.95;8.00;;;18.70;99.90;;;;;;5001051;28;20042;-33
2022/07/24 02:36:13;;;;;;;12.10;8.57;;;18.70;99.90;;;;;;4999089;28;20053;-34
2022/07/24 02:38:39;;;;;;;9.82;8.40;;;18.70;99.90;;;;;;5000179;28;20023;-32
2022/07/24 02:41:04;;;;;;;9.77;7.80;;;18.70;99.90;;;;;;5000782;28;20096;-33
2022/07/24 02:43:30;;;;;;;10.60;8.30;;;18.70;99.90;;;;;;4998878;28;20034;-33
2022/07/24 02:45:56;;;;;;;12.65;8.60;;;18.30;99.90;;;;;;4999455;28;20035;-33
2022/07/24 02:48:21;;;;;;;10.20;8.10;;;17.80;99.90;;;;;;4999533;28;20052;-32
2022/07/24 02:50:47;;;;;;;10.27;8.27;;;17.70;99.90;;;;;;5001317;28;20113;-33
2022/07/24 02:53:13;;;;;;;10.57;7.95;;;17.70;99.90;;;;;;5000517;28;20054;-35
2022/07/24 02:55:38;;;;;;;11.02;9.00;;;17.70;99.90;;;;;;5000039;28;20061;-33
2022/07/24 02:58:04;;;;;;;11.82;8.63;;;17.80;99.90;;;;;;5012881;28;20763;-34
2022/07/24 03:00:30;;;;;;;10.43;8.88;;;17.80;99.90;;;;;;4998870;28;20511;-33
2022/07/24 03:02:55;;;;;;;11.65;9.10;;;17.70;99.90;;;;;;4998490;28;20038;-33
2022/07/24 03:05:22;;;;;;;11.57;8.98;;;17.70;99.90;;;;;;4999253;28;20033;-33
2022/07/24 03:07:47;;;;;;;12.98;8.98;;;17.50;99.90;;;;;;4998921;28;20689;-33
2022/07/24 03:10:14;;;;;;;12.48;9.43;;;17.50;99.90;;;;;;4998028;28;20054;-33
2022/07/24 03:12:40;;;;;;;11.15;8.27;;;17.20;99.90;;;;;;5002122;28;20040;-33
2022/07/24 03:15:07;;;;;;;10.68;8.52;;;17.20;99.90;;;;;;5002172;28;20037;-33
2022/07/24 03:17:32;;;;;;;10.52;7.72;;;17.30;99.90;;;;;;4997868;28;20072;-32
2022/07/24 03:19:58;;;;;;;10.98;8.45;;;17.50;99.90;;;;;;5004204;28;20046;-33
2022/07/24 03:22:24;;;;;;;11.25;7.70;;;17.60;99.90;;;;;;5005591;28;20129;-34
2022/07/24 03:24:49;;;;;;;12.63;8.25;;;17.70;99.90;;;;;;5008232;28;20026;-33
2022/07/24 03:27:15;;;;;;;10.95;8.82;;;17.80;99.90;;;;;;5006031;28;20423;-33
2022/07/24 03:29:40;;;;;;;8.90;8.00;;;17.80;99.90;;;;;;5004085;28;20034;-33
2022/07/24 03:32:06;;;;;;;10.15;7.63;;;17.90;99.90;;;;;;5007062;28;20034;-33
2022/07/24 03:34:32;;;;;;;8.57;6.85;;;17.90;99.90;;;;;;5006751;28;20057;-33
2022/07/24 03:36:58;;;;;;;9.57;7.38;;;17.60;99.90;;;;;;5003553;28;20364;-33
2022/07/24 03:39:23;;;;;;;7.60;6.85;;;17.50;99.90;;;;;;5005929;28;20038;-33
2022/07/24 03:41:49;;;;;;;9.27;8.10;;;17.60;99.90;;;;;;5005764;28;20034;-33
2022/07/24 03:44:14;;;;;;;9.95;7.40;;;17.70;99.90;;;;;;5006254;28;20483;-33
2022/07/24 03:46:40;;;;;;;9.35;7.75;;;17.70;99.90;;;;;;5005520;28;20026;-33
2022/07/24 03:49:05;;;;;;;10.40;7.97;;;17.70;99.90;;;;;;5005722;28;20790;-33
2022/07/24 03:51:31;;;;;;;8.55;7.28;;;17.80;99.90;;;;;;5004738;28;20057;-33
2022/07/24 03:53:57;;;;;;;9.63;7.50;;;17.80;99.90;;;;;;5020539;28;20042;-33
2022/07/24 03:56:23;;;;;;;10.70;8.27;;;17.90;99.90;;;;;;5003471;28;20033;-36
2022/07/24 03:58:48;;;;;;;10.38;8.90;;;18.00;99.90;;;;;;5006758;28;20029;-32
2022/07/24 04:01:14;;;;;;;10.40;8.00;;;17.60;99.90;;;;;;5001440;28;20069;-32
2022/07/24 04:03:39;;;;;;;8.98;7.40;;;17.40;99.90;;;;;;5004273;28;20605;-34
2022/07/24 04:06:05;;;;;;;147.15;11.82;;;17.10;99.90;;;;;;5005843;28;20502;-33
2022/07/24 04:08:32;;;;;;;19.00;6.22;;;16.80;99.90;;;;;;5003978;28;20049;-33
2022/07/24 04:10:58;;;;;;;8.85;6.18;;;16.70;99.90;;;;;;5002972;28;20054;-35
2022/07/24 04:13:25;;;;;;;9.98;6.68;;;16.90;99.90;;;;;;5007166;28;20408;-32
2022/07/24 04:15:51;;;;;;;7.53;6.68;;;16.90;99.90;;;;;;5004567;28;20037;-34
2022/07/24 04:18:17;;;;;;;8.20;6.60;;;17.10;99.90;;;;;;5004939;28;20037;-33
2022/07/24 04:20:42;;;;;;;8.70;6.78;;;17.20;99.90;;;;;;5000366;28;20030;-33
2022/07/24 04:23:08;;;;;;;8.10;6.63;;;17.30;99.90;;;;;;5002749;28;20033;-33
2022/07/24 04:25:34;;;;;;;9.52;7.63;;;17.30;99.90;;;;;;5004211;28;20029;-32
2022/07/24 04:28:00;;;;;;;11.70;8.00;;;17.40;99.90;;;;;;5000272;28;20088;-32
2022/07/24 04:30:26;;;;;;;11.65;7.65;;;17.50;99.90;;;;;;5000152;28;20080;-34
2022/07/24 04:32:52;;;;;;;10.00;7.55;;;17.60;99.90;;;;;;5000205;28;20057;-33
2022/07/24 04:35:18;;;;;;;13.30;7.65;;;17.70;99.90;;;;;;5003559;28;20034;-33
2022/07/24 04:37:43;;;;;;;9.25;7.53;;;17.70;99.90;;;;;;5002087;28;20395;-33
2022/07/24 04:40:10;;;;;;;8.90;7.28;;;17.60;99.90;;;;;;5002477;28;20680;-34
2022/07/24 04:42:35;;;;;;;8.98;7.07;;;17.30;99.90;;;;;;5001793;28;20033;-33
2022/07/24 04:45:01;;;;;;;11.30;8.43;;;17.20;99.90;;;;;;5003789;28;20484;-32
2022/07/24 04:47:27;;;;;;;10.43;8.05;;;17.10;99.90;;;;;;5003599;28;20032;-33
2022/07/24 04:49:52;;;;;;;9.95;7.63;;;16.90;99.90;;;;;;5004785;28;20065;-32
2022/07/24 04:52:18;;;;;;;11.40;7.88;;;16.90;99.90;;;;;;5005127;28;20034;-33
2022/07/24 04:54:43;;;;;;;11.60;8.40;;;17.10;99.90;;;;;;5006154;28;20053;-33
2022/07/24 04:57:09;;;;;;;9.82;8.10;;;17.10;99.90;;;;;;5003437;28;20064;-33
2022/07/24 04:59:34;;;;;;;11.52;7.82;;;17.10;99.90;;;;;;5004150;28;21624;-33
2022/07/24 05:02:00;;;;;;;11.57;8.48;;;17.40;99.90;;;;;;5003619;28;20076;-32
2022/07/24 05:04:26;;;;;;;10.32;7.65;;;17.60;99.90;;;;;;5003227;28;20034;-33
2022/07/24 05:06:51;;;;;;;10.85;7.95;;;17.80;99.90;;;;;;5002579;28;20056;-33
2022/07/24 05:09:17;;;;;;;9.82;7.60;;;18.00;99.90;;;;;;5002679;28;20065;-34
2022/07/24 05:11:42;;;;;;;11.23;8.27;;;18.20;99.90;;;;;;5002649;28;20026;-34
2022/07/24 05:14:08;;;;;;;9.05;7.38;;;18.30;99.90;;;;;;4999804;28;20073;-33
2022/07/24 05:16:34;;;;;;;9.57;7.47;;;18.50;99.90;;;;;;5001068;28;20040;-33
2022/07/24 05:18:59;;;;;;;10.95;8.15;;;18.60;99.90;;;;;;5000692;28;20030;-33
2022/07/24 05:21:25;;;;;;;9.38;7.32;;;18.80;99.90;;;;;;5002859;28;20036;-33
2022/07/24 05:23:50;;;;;;;10.25;7.82;;;18.90;99.90;;;;;;4999050;28;20125;-32
2022/07/24 05:26:16;;;;;;;12.40;7.60;;;18.90;99.90;;;;;;5005193;28;20034;-33
2022/07/24 05:28:42;;;;;;;10.23;7.82;;;18.80;99.90;;;;;;5003254;28;20041;-33
2022/07/24 05:31:08;;;;;;;12.25;8.82;;;18.90;99.90;;;;;;5002337;28;20074;-33
2022/07/24 05:33:34;;;;;;;11.40;8.35;;;19.00;99.90;;;;;;5005858;28;20554;-34
2022/07/24 05:36:00;;;;;;;12.68;8.52;;;19.10;99.90;;;;;;5002411;28;20145;-33
2022/07/24 05:38:26;;;;;;;13.13;9.55;;;19.30;99.90;;;;;;5003438;28;20117;-33
2022/07/24 05:40:51;;;;;;;12.65;8.68;;;19.20;99.90;;;;;;5005001;28;20061;-33
2022/07/24 05:43:17;;;;;;;11.80;8.93;;;19.30;99.90;;;;;;5001783;28;20040;-34
2022/07/24 05:45:43;;;;;;;10.48;8.27;;;19.30;99.90;;;;;;5003382;28;20022;-32
2022/07/24 05:48:09;;;;;;;11.25;8.85;;;19.40;99.90;;;;;;5002800;28;20017;-33
2022/07/24 05:50:34;;;;;;;13.40;9.93;;;19.60;99.90;;;;;;5003006;28;20034;-33
2022/07/24 05:53:00;;;;;;;13.13;8.80;;;19.80;99.90;;;;;;5016187;28;20419;-34
2022/07/24 05:55:26;;;;;;;11.88;9.45;;;20.00;99.90;;;;;;5001477;28;20119;-33
2022/07/24 05:57:51;;;;;;;12.93;9.13;;;20.00;99.90;;;;;;5000745;28;20068;-34
2022/07/24 06:00:18;;;;;;;11.93;8.85;;;20.10;99.90;;;;;;5003970;28;20045;-33
2022/07/24 06:02:46;;;;;;;11.90;9.40;;;20.30;99.90;;;;;;4999870;28;20427;-33
2022/07/24 06:05:12;;;;;;;14.88;9.85;;;20.40;99.90;;;;;;4996992;28;20025;-34
2022/07/24 06:07:37;;;;;;;11.80;8.98;;;20.50;99.90;;;;;;5005384;28;20026;-32
2022/07/24 06:10:04;;;;;;;10.55;8.52;;;20.70;99.90;;;;;;5001131;28;20041;-33
2022/07/24 06:12:29;;;;;;;13.50;8.27;;;20.80;99.90;;;;;;5003183;28;20033;-33
2022/07/24 06:14:55;;;;;;;14.10;9.57;;;21.10;99.90;;;;;;5004128;28;20033;-33
2022/07/24 06:17:20;;;;;;;13.35;9.38;;;21.20;99.90;;;;;;5003242;28;20503;-32
2022/07/24 06:19:46;;;;;;;10.93;8.48;;;21.30;99.90;;;;;;5005031;28;20112;-32
2022/07/24 06:22:11;;;;;;;11.32;8.75;;;21.40;99.90;;;;;;5002274;28;20407;-32
2022/07/24 06:24:37;;;;;;;15.80;9.23;;;21.40;99.90;;;;;;5002192;28;20026;-32
2022/07/24 06:27:04;;;;;;;12.32;9.32;;;21.50;99.90;;;;;;5002026;28;20684;-33
2022/07/24 06:29:30;;;;;;;12.87;9.20;;;21.80;99.90;;;;;;5000950;28;20395;-34
2022/07/24 06:31:56;;;;;;;12.07;9.00;;;21.80;99.90;;;;;;4999756;28;20072;-33
2022/07/24 06:34:23;;;;;;;11.00;8.65;;;21.90;99.90;;;;;;5002641;28;20479;-33
2022/07/24 06:36:50;;;;;;;11.68;9.18;;;22.00;99.90;;;;;;5001481;28;20092;-33
2022/07/24 06:39:16;;;;;;;11.30;8.57;;;22.20;99.90;;;;;;5000899;28;20488;-33
2022/07/24 06:41:41;;;;;;;10.95;8.55;;;22.40;99.90;;;;;;4998967;28;20032;-32
2022/07/24 06:44:07;;;;;;;12.30;9.18;;;22.50;99.90;;;;;;4999521;28;20037;-32
2022/07/24 06:46:33;;;;;;;11.60;9.10;;;22.60;99.90;;;;;;5004326;28;20026;-32
2022/07/24 06:48:59;;;;;;;12.48;9.60;;;22.80;99.90;;;;;;5003410;28;20072;-34
2022/07/24 06:51:24;;;;;;;12.13;9.75;;;22.80;99.90;;;;;;5004035;28;20095;-33
2022/07/24 06:53:50;;;;;;;11.45;9.65;;;22.80;99.90;;;;;;5004268;28;20538;-32
2022/07/24 06:56:15;;;;;;;10.82;8.95;;;22.70;99.90;;;;;;5005810;28;20487;-32
2022/07/24 06:58:41;;;;;;;12.55;9.13;;;22.90;99.90;;;;;;5006610;28;20029;-32
2022/07/24 07:01:07;;;;;;;11.65;8.80;;;23.20;99.90;;;;;;5007886;28;20483;-32
2022/07/24 07:03:33;;;;;;;11.73;8.52;;;23.40;99.90;;;;;;5006241;28;20040;-32
2022/07/24 07:05:58;;;;;;;11.07;8.35;;;23.30;99.90;;;;;;5006935;28;20033;-33
2022/07/24 07:08:24;;;;;;;12.65;9.00;;;23.20;99.90;;;;;;5004111;28;20062;-33
2022/07/24 07:10:50;;;;;;;9.88;8.88;;;23.40;99.90;;;;;;5004806;28;20029;-33
2022/07/24 07:13:15;;;;;;;9.88;8.25;;;23.60;99.90;;;;;;5004933;28;20049;-33
2022/07/24 07:15:41;;;;;;;12.65;8.20;;;23.90;99.90;;;;;;5007324;28;20479;-32
2022/07/24 07:18:07;;;;;;;10.02;7.97;;;24.10;99.90;;;;;;5005774;28;20057;-32
2022/07/24 07:20:32;;;;;;;9.85;7.63;;;24.30;99.90;;;;;;5006681;28;20041;-33
2022/07/24 07:22:58;;;;;;;10.07;8.25;;;24.40;98.40;;;;;;5005898;28;20821;-33
2022/07/24 07:25:24;;;;;;;9.85;8.10;;;24.30;97.00;;;;;;5003454;28;20022;-32
2022/07/24 07:27:50;;;;;;;16.83;8.32;;;24.60;98.50;;;;;;5005463;28;20100;-33
2022/07/24 07:30:15;;;;;;;9.10;8.20;;;24.80;98.20;;;;;;5004419;28;20430;-33
2022/07/24 07:32:41;;;;;;;11.98;8.23;;;25.10;96.20;;;;;;5005649;28;20060;-32
2022/07/24 07:35:08;;;;;;;9.70;8.18;;;25.40;95.50;;;;;;5001469;28;20026;-33
2022/07/24 07:37:33;;;;;;;11.65;8.15;;;25.60;93.70;;;;;;5004128;28;20046;-33
2022/07/24 07:39:59;;;;;;;9.10;7.78;;;25.70;92.40;;;;;;5002794;28;20085;-34
2022/07/24 07:42:25;;;;;;;10.00;7.68;;;25.60;92.80;;;;;;5005382;28;20065;-35
2022/07/24 07:44:50;;;;;;;9.45;6.63;;;25.40;91.80;;;;;;5001611;28;20033;-35
2022/07/24 07:47:16;;;;;;;10.27;7.65;;;25.60;91.60;;;;;;5001963;28;20044;-33
2022/07/24 07:49:42;;;;;;;9.30;7.28;;;25.70;80.80;;;;;;5005316;28;22068;-33
2022/07/24 07:52:09;;;;;;;8.27;7.20;;;25.70;82.20;;;;;;5003321;28;20026;-33
2022/07/24 07:54:35;;;;;;;9.90;7.38;;;25.90;77.60;;;;;;5003505;28;20057;-33
2022/07/24 07:57:00;;;;;;;8.05;6.93;;;25.70;75.80;;;;;;5003606;28;20038;-34
2022/07/24 07:59:26;;;;;;;7.75;6.85;;;25.80;79.00;;;;;;4999710;28;20044;-32
2022/07/24 08:01:52;;;;;;;8.38;7.25;;;26.30;73.50;;;;;;5004319;28;20096;-34
2022/07/24 08:04:18;;;;;;;8.52;7.03;;;26.40;74.90;;;;;;5001074;28;20135;-33
2022/07/24 08:06:43;;;;;;;9.73;7.80;;;26.10;76.00;;;;;;4999666;28;20036;-32
2022/07/24 08:09:09;;;;;;;10.45;8.15;;;26.20;72.70;;;;;;5001809;28;20033;-33
2022/07/24 08:11:35;;;;;;;10.40;7.25;;;26.20;71.40;;;;;;5003733;28;20025;-32
2022/07/24 08:14:00;;;;;;;9.88;7.93;;;26.10;72.50;;;;;;4994166;28;20021;-33
2022/07/24 08:16:27;;;;;;;8.90;7.20;;;26.40;69.30;;;;;;5000538;28;20042;-33
2022/07/24 08:18:53;;;;;;;8.47;7.20;;;26.50;72.20;;;;;;4998943;28;21976;-33
2022/07/24 08:21:19;;;;;;;7.93;7.13;;;27.00;69.70;;;;;;5003491;28;20033;-33
2022/07/24 08:23:45;;;;;;;11.63;7.72;;;27.40;67.10;;;;;;5002484;28;20131;-32
2022/07/24 08:26:11;;;;;;;8.15;7.03;;;27.60;62.10;;;;;;5004394;28;20030;-33
2022/07/24 08:28:38;;;;;;;9.07;6.80;;;27.60;59.90;;;;;;5003700;28;20041;-33
2022/07/24 08:31:04;;;;;;;7.70;6.87;;;27.20;62.70;;;;;;5002445;28;20427;-33
2022/07/24 08:33:29;;;;;;;7.57;6.88;;;27.50;63.80;;;;;;5006591;28;20034;-32
2022/07/24 08:35:55;;;;;;;8.07;7.28;;;27.80;62.10;;;;;;5001278;28;20026;-33
2022/07/24 08:38:20;;;;;;;8.95;7.18;;;28.00;60.10;;;;;;5004832;28;20042;-33
2022/07/24 08:40:46;;;;;;;9.35;7.78;;;27.90;60.40;;;;;;5002910;28;20041;-33
2022/07/24 08:43:12;;;;;;;9.98;7.45;;;27.90;57.70;;;;;;5004069;28;20464;-32
2022/07/24 08:45:39;;;;;;;8.20;7.28;;;27.60;59.60;;;;;;5002650;28;20026;-33
2022/07/24 08:48:09;;;;;;;8.63;7.75;;;28.00;60.80;;;;;;5003154;28;20033;-33
2022/07/24 08:50:36;;;;;;;10.82;7.60;;;27.90;57.40;;;;;;5005693;28;20755;-32
2022/07/24 08:53:02;;;;;;;;;;;28.20;59.20;;;;;;5006173;28;20045;-32
2022/07/24 08:55:29;;;;;;;8.35;7.45;;;28.50;56.10;;;;;;5005599;28;20359;-33
2022/07/24 08:57:58;;;;;;;8.52;7.13;;;28.20;56.80;;;;;;5003500;28;20093;-33
2022/07/24 09:00:25;;;;;;;7.78;6.97;;;28.00;54.40;;;;;;5001510;28;20120;-33
2022/07/24 09:02:51;;;;;;;10.20;7.65;;;27.90;55.40;;;;;;5002645;28;21569;-33
2022/07/24 09:05:16;;;;;;;8.38;7.57;;;28.20;55.70;;;;;;5006872;28;20042;-33
2022/07/24 09:07:42;;;;;;;8.98;7.60;;;28.20;53.00;;;;;;5004146;28;20030;-33
2022/07/24 09:10:15;;;;;;;9.55;7.22;;;28.20;52.80;;;;;;5003528;28;20041;-33
2022/07/24 09:12:45;;;;;;;7.63;6.82;;;27.60;55.20;;;;;;5004670;28;20064;-33
2022/07/24 09:15:20;;;;;;;9.50;7.70;;;27.50;55.80;;;;;;5003361;28;20129;-33
2022/07/24 09:17:56;;;;;;;7.78;6.97;;;27.10;57.60;;;;;;5005237;28;20022;-32
2022/07/24 09:20:24;;;;;;;10.60;7.75;;;26.80;57.60;;;;;;5003528;28;20025;-33
2022/07/24 09:22:50;;;;;;;8.73;7.25;;;27.00;59.20;;;;;;5004886;28;20040;-34
2022/07/24 09:25:18;;;;;;;10.27;8.45;;;27.10;60.20;;;;;;5005356;28;20120;-34
2022/07/24 09:27:55;;;;;;;8.63;7.72;;;27.10;59.60;;;;;;5004690;28;20124;-33
2022/07/24 09:30:27;;;;;;;9.68;7.63;;;26.90;62.30;;;;;;5005378;28;20387;-32
2022/07/24 09:33:02;;;;;;;8.65;7.38;;;26.70;61.30;;;;;;5003170;28;20064;-33
2022/07/24 09:35:31;;;;;;;9.40;8.48;;;26.90;61.10;;;;;;5003769;28;20022;-33
2022/07/24 09:37:58;;;;;;;11.35;7.95;;;27.00;59.00;;;;;;5002315;28;20030;-33
2022/07/24 09:40:45;;;;;;;10.02;8.32;;;26.70;59.80;;;;;;5004105;28;20030;-33
2022/07/24 09:43:43;;;;;;;9.05;8.13;;;26.50;60.60;;;;;;5000387;28;22025;-32
2022/07/24 09:46:10;;;;;;;9.10;7.35;;;26.50;60.40;;;;;;4977777;28;20034;-33
2022/07/24 09:48:52;;;;;;;8.70;7.60;;;26.80;60.70;;;;;;5003927;28;20132;-33
2022/07/24 09:51:18;;;;;;;10.27;7.88;;;27.30;56.50;;;;;;5004077;28;20038;-32
2022/07/24 09:53:46;;;;;;;8.90;8.00;;;27.40;56.10;;;;;;5001769;28;20041;-32
2022/07/24 09:56:14;;;;;;;9.82;7.18;;;27.40;56.90;;;;;;5003768;28;20108;-32
2022/07/24 09:58:52;;;;;;;8.68;7.35;;;27.30;54.30;;;;;;5005975;28;20025;-32
2022/07/24 10:01:21;;;;;;;8.18;7.38;;;27.50;54.90;;;;;;5001911;28;20180;-34
2022/07/24 10:03:48;;;;;;;8.75;7.38;;;27.90;55.60;;;;;;4999005;28;20030;-33
2022/07/24 10:06:15;;;;;;;;;;;27.60;52.00;;;;;;5003882;28;20601;-33
2022/07/24 10:08:44;;;;;;;8.70;7.80;;;27.60;55.30;;;;;;5002451;28;20393;-33
2022/07/24 10:11:10;;;;;;;9.32;7.70;;;27.60;55.30;;;;;;5002450;28;20442;-33
2022/07/24 10:13:36;;;;;;;11.40;7.47;;;27.40;56.70;;;;;;5002974;28;20495;-32
2022/07/24 10:16:11;;;;;;;8.02;6.97;;;27.30;56.50;;;;;;5001676;28;20041;-33
2022/07/24 10:18:50;;;;;;;8.20;6.93;;;27.40;57.30;;;;;;5001164;28;20051;-33
2022/07/24 10:21:27;;;;;;;9.55;7.40;;;27.70;55.20;;;;;;5003705;28;20038;-33
2022/07/24 10:23:53;;;;;;;;;;;27.70;51.70;;;;;;5003437;28;22121;-32
2022/07/24 10:26:30;;;;;;;7.40;6.68;;;27.80;53.40;;;;;;5000198;28;20003;-34
2022/07/24 10:29:01;;;;;;;;;;;27.90;53.40;;;;;;5001363;28;20037;-33
2022/07/24 10:31:28;;;;;;;10.55;7.35;;;28.30;54.90;;;;;;5005760;28;19913;-32
2022/07/24 10:33:56;;;;;;;7.53;6.63;;;28.70;50.90;;;;;;5003886;28;20479;-33
2022/07/24 10:36:29;;;;;;;8.40;6.85;;;28.80;49.10;;;;;;5006169;28;20057;-34
2022/07/24 10:39:00;;;;;;;7.30;6.50;;;29.10;48.90;;;;;;5016502;28;20034;-32
2022/07/24 10:41:26;;;;;;;7.35;6.65;;;29.40;47.70;;;;;;5005030;28;20030;-33
2022/07/24 10:44:11;;;;;;;7.57;6.72;;;29.50;46.50;;;;;;5005233;28;20034;-32
2022/07/24 10:46:55;;;;;;;7.75;6.90;;;29.90;45.20;;;;;;5004769;28;20040;-33
2022/07/24 10:49:39;;;;;;;8.32;7.05;;;29.70;45.20;;;;;;5006792;28;20033;-33
2022/07/24 10:52:05;;;;;;;7.50;6.60;;;29.60;44.70;;;;;;5007257;28;20502;-33
2022/07/24 10:54:30;;;;;;;9.07;6.80;;;29.50;44.10;;;;;;5001731;28;20058;-33
2022/07/24 10:56:56;;;;;;;7.95;6.93;;;29.40;45.50;;;;;;5001768;28;20487;-32
2022/07/24 10:59:37;;;;;;;7.60;6.90;;;29.50;45.60;;;;;;5005879;28;20084;-32
2022/07/24 11:02:26;;;;;;;7.32;6.60;;;29.00;45.60;;;;;;5002254;28;20061;-33
2022/07/24 11:05:28;;;;;;;9.07;7.32;;;28.90;45.40;;;;;;5003792;28;20083;-33
2022/07/24 11:08:16;;;;;;;7.38;6.78;;;29.00;45.70;;;;;;5004180;28;20036;-33
2022/07/24 11:10:46;;;;;;;9.35;7.07;;;28.80;45.80;;;;;;5002169;28;20735;-33
2022/07/24 11:13:33;;;;;;;7.75;7.05;;;29.00;45.10;;;;;;5005308;28;20030;-33
2022/07/24 11:16:11;;;;;;;8.13;7.15;;;29.10;44.90;;;;;;5003161;28;20026;-33
2022/07/24 11:19:01;;;;;;;7.60;6.88;;;29.00;44.70;;;;;;4999833;28;20034;-32
2022/07/24 11:21:35;;;;;;;18.42;14.60;;;29.00;43.60;;;;;;5003175;28;20542;-32
2022/07/24 11:26:48;;;;;;;7.25;6.55;;;28.60;44.40;;;;;;5003873;28;20045;-32
2022/07/24 11:29:23;;;;;;;7.20;6.50;;;28.70;44.10;;;;;;5007041;28;20037;-33
2022/07/24 11:31:53;;;;;;;7.22;6.53;;;28.80;44.70;;;;;;5001630;28;20022;-33
2022/07/24 11:34:19;;;;;;;6.93;6.28;;;29.00;43.90;;;;;;5003296;28;20022;-32
2022/07/24 11:36:47;;;;;;;7.57;6.22;;;29.20;43.60;;;;;;5004297;28;20406;-33
2022/07/24 11:39:14;;;;;;;7.20;6.50;;;29.30;44.00;;;;;;5003085;28;20036;-33
2022/07/24 11:41:47;;;;;;;7.32;6.63;;;28.70;44.90;;;;;;5003918;28;20514;-33
2022/07/24 11:44:14;;;;;;;7.20;6.38;;;28.70;45.60;;;;;;5003819;28;20045;-33
2022/07/24 11:46:42;;;;;;;7.78;6.35;;;28.90;44.90;;;;;;5002020;28;20422;-32
2022/07/24 11:49:10;;;;;;;7.45;6.60;;;29.00;43.80;;;;;;5001981;28;20034;-33
2022/07/24 11:51:46;;;;;;;7.30;6.63;;;28.80;44.40;;;;;;5002952;28;20376;-32
2022/07/24 11:54:14;;;;;;;7.35;6.45;;;28.90;44.10;;;;;;4965664;28;1102557;-33
2022/07/24 11:56:40;;;;;;;8.15;7.38;;;28.90;46.50;;;;;;5003806;28;20030;-33
2022/07/24 11:59:20;;;;;;;7.82;6.68;;;29.10;45.00;;;;;;5007145;28;20034;-32
2022/07/24 12:01:45;;;;;;;7.38;6.68;;;29.10;45.30;;;;;;5002513;28;20041;-32
2022/07/24 12:04:11;;;;;;;7.10;6.50;;;29.50;45.90;;;;;;5005578;28;20038;-33
2022/07/24 12:06:37;;;;;;;7.30;6.65;;;29.30;44.30;;;;;;5003341;28;20487;-33
2022/07/24 12:09:07;;;;;;;7.30;6.45;;;29.20;43.40;;;;;;5003433;28;20037;-32
2022/07/24 12:11:35;;;;;;;7.55;6.85;;;29.10;45.20;;;;;;5004593;28;20803;-32
2022/07/24 12:14:01;;;;;;;;;;;28.80;46.50;;;;;;5003435;28;20073;-34
2022/07/24 12:16:30;;;;;;;7.78;6.75;;;28.50;46.40;;;;;;5004249;28;19928;-32
2022/07/24 12:19:16;;;;;;;7.43;6.68;;;28.50;46.20;;;;;;5020955;28;20030;-33
2022/07/24 12:21:43;;;;;;;7.95;6.75;;;28.70;45.50;;;;;;5005205;28;20522;-33
2022/07/24 12:24:09;;;;;;;7.60;6.90;;;28.90;44.50;;;;;;5003689;28;20026;-33
2022/07/24 12:26:54;;;;;;;9.35;6.50;;;29.20;44.80;;;;;;5006687;28;20097;-32
2022/07/24 12:29:21;;;;;;;7.47;6.72;;;29.30;43.80;;;;;;4999301;28;20033;-33
2022/07/24 12:31:47;;;;;;;8.23;7.10;;;28.90;43.70;;;;;;5004750;28;20041;-33
2022/07/24 12:34:13;;;;;;;8.35;6.82;;;29.10;44.40;;;;;;5005852;28;20072;-33
2022/07/24 12:36:40;;;;;;;7.80;7.00;;;29.60;43.40;;;;;;5001544;28;20435;-33
2022/07/24 12:39:06;;;;;;;7.63;6.82;;;29.50;43.90;;;;;;5005885;28;20581;-32
2022/07/24 12:41:44;;;;;;;8.55;6.75;;;29.60;43.20;;;;;;5005728;28;20061;-32
2022/07/24 12:44:10;;;;;;;7.55;6.85;;;29.70;43.30;;;;;;5004742;28;20515;-32
2022/07/24 12:46:38;;;;;;;7.47;6.57;;;29.80;41.60;;;;;;5004369;28;20030;-33